sensor_id;sensor_type;location;lat;lon;timestamp;pressure;altitude;pressure_sealevel;temperature;humidity
19777;BME280;10047;42.490;26.012;2023-02-23T00:00:26;100091.22;;;6.74;100.00
19777;BME280;10047;42.490;26.012;2023-02-23T00:02:57;100092.88;;;6.76;100.00
19777;BME280;10047;42.490;26.012;2023-02-23T00:05:27;100143.06;;;7.08;100.00
19777;BME280;10047;42.490;26.012;2023-02-23T00:07:53;100134.84;;;6.91;100.00
19777;BME280;10047;42.490;26.012;2023-02-23T00:10:19;100108.25;;;6.57;100.00
19777;BME280;10047;42.490;26.012;2023-02-23T00:12:46;100047.66;;;6.55;100.00
19777;BME280;10047;42.490;26.012;2023-02-23T00:15:11;100143.47;;;6.70;100.00
19777;BME280;10047;42.490;26.012;2023-02-23T00:17:37;100132.66;;;6.56;100.00
19777;BME280;10047;42.490;26.012;2023-02-23T00:20:09;100091.59;;;6.38;100.00
19777;BME280;10047;42.490;26.012;2023-02-23T00:22:39;100035.59;;;5.99;100.00
19777;BME280;10047;42.490;26.012;2023-02-23T00:25:09;100145.16;;;6.68;100.00
19777;BME280;10047;42.490;26.012;2023-02-23T00:27:36;100114.31;;;6.38;100.00
19777;BME280;10047;42.490;26.012;2023-02-23T00:30:04;100141.03;;;6.61;100.00
19777;BME280;10047;42.490;26.012;2023-02-23T00:32:31;100129.50;;;6.35;100.00
19777;BME280;10047;42.490;26.012;2023-02-23T00:34:57;100139.47;;;6.48;100.00
19777;BME280;10047;42.490;26.012;2023-02-23T00:37:22;100136.84;;;6.59;100.00
19777;BME280;10047;42.490;26.012;2023-02-23T00:39:48;100137.69;;;6.56;100.00
19777;BME280;10047;42.490;26.012;2023-02-23T00:42:14;100131.78;;;6.59;100.00
19777;BME280;10047;42.490;26.012;2023-02-23T00:44:40;100121.75;;;6.50;100.00
19777;BME280;10047;42.490;26.012;2023-02-23T00:47:06;100078.84;;;6.50;100.00
19777;BME280;10047;42.490;26.012;2023-02-23T00:49:32;100084.78;;;6.47;100.00
19777;BME280;10047;42.490;26.012;2023-02-23T00:51:58;100103.50;;;6.24;100.00
19777;BME280;10047;42.490;26.012;2023-02-23T00:54:24;100114.03;;;6.66;100.00
19777;BME280;10047;42.490;26.012;2023-02-23T00:56:50;100137.47;;;6.80;100.00
19777;BME280;10047;42.490;26.012;2023-02-23T00:59:16;100145.31;;;6.53;100.00
19777;BME280;10047;42.490;26.012;2023-02-23T01:01:43;100108.41;;;6.42;100.00
19777;BME280;10047;42.490;26.012;2023-02-23T01:04:10;100144.28;;;6.75;100.00
19777;BME280;10047;42.490;26.012;2023-02-23T01:06:36;100099.28;;;6.27;100.00
19777;BME280;10047;42.490;26.012;2023-02-23T01:09:06;100148.00;;;6.32;100.00
19777;BME280;10047;42.490;26.012;2023-02-23T01:11:33;100135.25;;;6.49;100.00
19777;BME280;10047;42.490;26.012;2023-02-23T01:13:59;100151.22;;;6.52;100.00
19777;BME280;10047;42.490;26.012;2023-02-23T01:16:28;100147.97;;;6.38;100.00
19777;BME280;10047;42.490;26.012;2023-02-23T01:18:55;100126.00;;;6.49;100.00
19777;BME280;10047;42.490;26.012;2023-02-23T01:21:24;100144.28;;;6.72;100.00
19777;BME280;10047;42.490;26.012;2023-02-23T01:23:50;100091.66;;;6.32;100.00
19777;BME280;10047;42.490;26.012;2023-02-23T01:26:20;100142.06;;;6.39;100.00
19777;BME280;10047;42.490;26.012;2023-02-23T01:28:51;100094.41;;;6.03;100.00
19777;BME280;10047;42.490;26.012;2023-02-23T01:31:17;100142.22;;;6.18;100.00
19777;BME280;10047;42.490;26.012;2023-02-23T01:33:43;100135.47;;;6.25;100.00
19777;BME280;10047;42.490;26.012;2023-02-23T01:36:08;100108.75;;;5.99;100.00
19777;BME280;10047;42.490;26.012;2023-02-23T01:38:34;100088.31;;;6.30;100.00
19777;BME280;10047;42.490;26.012;2023-02-23T01:40:59;100082.63;;;6.08;100.00
19777;BME280;10047;42.490;26.012;2023-02-23T01:43:24;100076.59;;;6.21;100.00
19777;BME280;10047;42.490;26.012;2023-02-23T01:45:54;100082.44;;;6.26;100.00
19777;BME280;10047;42.490;26.012;2023-02-23T01:48:23;100120.09;;;6.49;100.00
19777;BME280;10047;42.490;26.012;2023-02-23T01:50:56;100136.97;;;6.47;100.00
19777;BME280;10047;42.490;26.012;2023-02-23T01:53:29;100134.47;;;6.44;100.00
19777;BME280;10047;42.490;26.012;2023-02-23T01:56:01;100138.53;;;6.58;100.00
19777;BME280;10047;42.490;26.012;2023-02-23T01:58:28;100081.13;;;5.80;100.00
19777;BME280;10047;42.490;26.012;2023-02-23T02:00:56;100133.75;;;6.27;100.00
19777;BME280;10047;42.490;26.012;2023-02-23T02:03:30;100138.06;;;6.17;100.00
19777;BME280;10047;42.490;26.012;2023-02-23T02:05:59;100088.00;;;5.58;100.00
19777;BME280;10047;42.490;26.012;2023-02-23T02:08:28;100138.25;;;5.88;100.00
19777;BME280;10047;42.490;26.012;2023-02-23T02:10:55;100143.31;;;5.90;100.00
19777;BME280;10047;42.490;26.012;2023-02-23T02:13:26;100143.03;;;6.28;100.00
19777;BME280;10047;42.490;26.012;2023-02-23T02:18:57;100151.88;;;5.54;100.00
19777;BME280;10047;42.490;26.012;2023-02-23T02:27:01;100088.91;;;5.44;100.00
19777;BME280;10047;42.490;26.012;2023-02-23T02:35:27;100140.84;;;5.69;100.00
19777;BME280;10047;42.490;26.012;2023-02-23T02:44:01;100150.03;;;5.82;100.00
19777;BME280;10047;42.490;26.012;2023-02-23T02:46:37;100143.31;;;5.90;100.00
19777;BME280;10047;42.490;26.012;2023-02-23T02:49:14;100142.47;;;5.80;100.00
19777;BME280;10047;42.490;26.012;2023-02-23T02:54:27;100147.53;;;5.82;100.00
19777;BME280;10047;42.490;26.012;2023-02-23T02:56:56;100087.47;;;4.99;100.00
19777;BME280;10047;42.490;26.012;2023-02-23T02:59:24;100093.25;;;5.17;100.00
19777;BME280;10047;42.490;26.012;2023-02-23T03:02:19;100150.19;;;5.58;100.00
19777;BME280;10047;42.490;26.012;2023-02-23T03:05:12;100090.78;;;4.99;100.00
19777;BME280;10047;42.490;26.012;2023-02-23T03:11:09;100146.00;;;5.52;100.00
19777;BME280;10047;42.490;26.012;2023-02-23T03:16:55;100140.84;;;5.69;100.00
19777;BME280;10047;42.490;26.012;2023-02-23T03:20:25;100149.34;;;5.57;100.00
19777;BME280;10047;42.490;26.012;2023-02-23T03:29:13;100164.53;;;5.42;100.00
19777;BME280;10047;42.490;26.012;2023-02-23T03:35:23;100162.88;;;5.40;100.00
19777;BME280;10047;42.490;26.012;2023-02-23T03:38:21;100056.44;;;4.91;100.00
19777;BME280;10047;42.490;26.012;2023-02-23T03:41:10;100052.19;;;5.00;100.00
19777;BME280;10047;42.490;26.012;2023-02-23T03:43:58;100154.25;;;5.80;100.00
19777;BME280;10047;42.490;26.012;2023-02-23T03:46:45;100092.25;;;5.46;100.00
19777;BME280;10047;42.490;26.012;2023-02-23T03:49:33;100123.34;;;5.43;100.00
19777;BME280;10047;42.490;26.012;2023-02-23T03:52:23;100114.13;;;5.39;100.00
19777;BME280;10047;42.490;26.012;2023-02-23T03:55:15;100054.75;;;4.87;100.00
19777;BME280;10047;42.490;26.012;2023-02-23T03:58:05;100152.88;;;5.14;100.00
19777;BME280;10047;42.490;26.012;2023-02-23T04:00:51;100101.81;;;4.71;100.00
19777;BME280;10047;42.490;26.012;2023-02-23T04:03:41;100152.03;;;5.16;100.00
19777;BME280;10047;42.490;26.012;2023-02-23T04:06:31;100108.44;;;4.93;100.00
19777;BME280;10047;42.490;26.012;2023-02-23T04:09:17;100153.78;;;4.96;100.00
19777;BME280;10047;42.490;26.012;2023-02-23T04:14:58;100080.84;;;4.60;100.00
19777;BME280;10047;42.490;26.012;2023-02-23T04:17:27;100110.16;;;4.87;100.00
19777;BME280;10047;42.490;26.012;2023-02-23T04:19:54;100147.69;;;5.47;100.00
19777;BME280;10047;42.490;26.012;2023-02-23T04:22:21;100155.44;;;5.08;100.00
19777;BME280;10047;42.490;26.012;2023-02-23T04:24:47;100095.78;;;5.14;100.00
19777;BME280;10047;42.490;26.012;2023-02-23T04:27:13;100146.16;;;5.16;100.00
19777;BME280;10047;42.490;26.012;2023-02-23T04:29:39;100135.31;;;4.94;100.00
19777;BME280;10047;42.490;26.012;2023-02-23T04:32:06;100097.56;;;4.85;100.00
19777;BME280;10047;42.490;26.012;2023-02-23T04:34:32;100077.44;;;6.20;100.00
19777;BME280;10047;42.490;26.012;2023-02-23T04:36:57;100105.94;;;4.95;100.00
19777;BME280;10047;42.490;26.012;2023-02-23T04:39:22;100132.72;;;5.15;100.00
19777;BME280;10047;42.490;26.012;2023-02-23T04:41:48;100141.94;;;5.19;100.00
19777;BME280;10047;42.490;26.012;2023-02-23T04:44:15;100074.06;;;4.82;100.00
19777;BME280;10047;42.490;26.012;2023-02-23T04:46:40;100156.28;;;5.07;100.00
19777;BME280;10047;42.490;26.012;2023-02-23T04:49:05;100104.94;;;5.29;100.00
19777;BME280;10047;42.490;26.012;2023-02-23T04:51:31;100088.31;;;4.90;100.00
19777;BME280;10047;42.490;26.012;2023-02-23T04:53:58;100144.44;;;5.28;100.00
19777;BME280;10047;42.490;26.012;2023-02-23T04:56:23;100150.28;;;5.34;100.00
19777;BME280;10047;42.490;26.012;2023-02-23T04:58:49;100105.06;;;5.03;100.00
19777;BME280;10047;42.490;26.012;2023-02-23T05:01:15;100150.25;;;5.46;100.00
19777;BME280;10047;42.490;26.012;2023-02-23T05:03:41;100158.75;;;5.17;100.00
19777;BME280;10047;42.490;26.012;2023-02-23T05:06:06;100089.97;;;4.96;100.00
19777;BME280;10047;42.490;26.012;2023-02-23T05:08:31;100162.97;;;5.14;100.00
19777;BME280;10047;42.490;26.012;2023-02-23T05:10:57;100128.63;;;4.90;100.00
19777;BME280;10047;42.490;26.012;2023-02-23T05:13:22;100152.78;;;5.38;100.00
19777;BME280;10047;42.490;26.012;2023-02-23T05:15:48;100165.44;;;5.27;100.00
19777;BME280;10047;42.490;26.012;2023-02-23T05:18:13;100105.09;;;4.91;100.00
19777;BME280;10047;42.490;26.012;2023-02-23T05:20:42;100111.00;;;4.78;100.00
19777;BME280;10047;42.490;26.012;2023-02-23T05:23:09;100156.28;;;5.08;100.00
19777;BME280;10047;42.490;26.012;2023-02-23T05:25:37;100149.47;;;5.28;100.00
19777;BME280;10047;42.490;26.012;2023-02-23T05:28:03;100150.19;;;5.55;100.00
19777;BME280;10047;42.490;26.012;2023-02-23T05:30:29;100135.84;;;5.67;100.00
19777;BME280;10047;42.490;26.012;2023-02-23T05:32:54;100103.16;;;5.49;100.00
19777;BME280;10047;42.490;26.012;2023-02-23T05:35:20;100155.25;;;5.56;100.00
19777;BME280;10047;42.490;26.012;2023-02-23T05:37:45;100129.38;;;5.15;100.00
19777;BME280;10047;42.490;26.012;2023-02-23T05:40:11;100161.19;;;5.40;100.00
19777;BME280;10047;42.490;26.012;2023-02-23T05:42:36;100114.13;;;5.39;100.00
19777;BME280;10047;42.490;26.012;2023-02-23T05:45:03;100154.50;;;7.38;100.00
19777;BME280;10047;42.490;26.012;2023-02-23T05:47:30;100168.88;;;9.00;100.00
19777;BME280;10047;42.490;26.012;2023-02-23T05:49:55;100171.38;;;8.00;100.00
19777;BME280;10047;42.490;26.012;2023-02-23T05:52:20;100142.56;;;8.60;100.00
19777;BME280;10047;42.490;26.012;2023-02-23T05:54:46;100211.56;;;9.66;100.00
19777;BME280;10047;42.490;26.012;2023-02-23T05:57:11;100187.22;;;9.14;100.00
19777;BME280;10047;42.490;26.012;2023-02-23T05:59:37;100221.13;;;9.09;100.00
19777;BME280;10047;42.490;26.012;2023-02-23T06:02:02;100276.19;;;9.91;100.00
19777;BME280;10047;42.490;26.012;2023-02-23T06:04:31;100278.03;;;10.25;100.00
19777;BME280;10047;42.490;26.012;2023-02-23T06:06:58;100250.03;;;10.27;100.00
19777;BME280;10047;42.490;26.012;2023-02-23T06:09:24;100230.19;;;10.42;100.00
19777;BME280;10047;42.490;26.012;2023-02-23T06:11:49;100257.97;;;11.50;100.00
19777;BME280;10047;42.490;26.012;2023-02-23T06:14:15;100328.66;;;11.40;100.00
19777;BME280;10047;42.490;26.012;2023-02-23T06:16:40;100322.78;;;12.01;100.00
19777;BME280;10047;42.490;26.012;2023-02-23T06:19:09;100282.09;;;11.37;100.00
19777;BME280;10047;42.490;26.012;2023-02-23T06:21:35;100327.09;;;10.27;100.00
19777;BME280;10047;42.490;26.012;2023-02-23T06:24:00;100346.19;;;10.02;100.00
19777;BME280;10047;42.490;26.012;2023-02-23T06:26:27;100331.31;;;8.90;100.00
19777;BME280;10047;42.490;26.012;2023-02-23T06:28:52;100317.66;;;9.47;100.00
19777;BME280;10047;42.490;26.012;2023-02-23T06:31:18;100324.00;;;8.70;100.00
19777;BME280;10047;42.490;26.012;2023-02-23T06:33:43;100313.69;;;8.23;100.00
19777;BME280;10047;42.490;26.012;2023-02-23T06:36:08;100281.47;;;8.89;100.00
19777;BME280;10047;42.490;26.012;2023-02-23T06:38:35;100259.88;;;8.66;100.00
19777;BME280;10047;42.490;26.012;2023-02-23T06:41:06;100285.66;;;8.93;100.00
19777;BME280;10047;42.490;26.012;2023-02-23T06:43:32;100308.31;;;8.47;100.00
19777;BME280;10047;42.490;26.012;2023-02-23T06:45:57;100262.94;;;8.32;100.00
19777;BME280;10047;42.490;26.012;2023-02-23T06:48:23;100247.44;;;8.51;100.00
19777;BME280;10047;42.490;26.012;2023-02-23T06:50:48;100310.31;;;8.82;100.00
19777;BME280;10047;42.490;26.012;2023-02-23T06:53:13;100263.13;;;9.25;100.00
19777;BME280;10047;42.490;26.012;2023-02-23T06:55:39;100304.41;;;8.83;100.00
19777;BME280;10047;42.490;26.012;2023-02-23T06:58:04;100306.88;;;8.87;100.00
19777;BME280;10047;42.490;26.012;2023-02-23T07:00:32;100300.78;;;8.96;100.00
19777;BME280;10047;42.490;26.012;2023-02-23T07:02:57;100247.84;;;8.77;100.00
19777;BME280;10047;42.490;26.012;2023-02-23T07:05:24;100255.00;;;9.03;100.00
19777;BME280;10047;42.490;26.012;2023-02-23T07:07:50;100300.53;;;9.12;100.00
19777;BME280;10047;42.490;26.012;2023-02-23T07:10:16;100254.66;;;9.67;100.00
19777;BME280;10047;42.490;26.012;2023-02-23T07:12:42;100295.13;;;10.17;100.00
19777;BME280;10047;42.490;26.012;2023-02-23T07:15:08;100227.13;;;9.03;100.00
19777;BME280;10047;42.490;26.012;2023-02-23T07:17:35;100295.00;;;8.88;100.00
19777;BME280;10047;42.490;26.012;2023-02-23T07:20:01;100267.59;;;9.56;100.00
19777;BME280;10047;42.490;26.012;2023-02-23T07:22:27;100303.34;;;8.94;100.00
19777;BME280;10047;42.490;26.012;2023-02-23T07:24:55;100235.69;;;9.43;100.00
19777;BME280;10047;42.490;26.012;2023-02-23T07:27:21;100286.06;;;9.63;100.00
19777;BME280;10047;42.490;26.012;2023-02-23T07:29:46;100288.31;;;9.77;100.00
19777;BME280;10047;42.490;26.012;2023-02-23T07:32:11;100247.63;;;8.93;100.00
19777;BME280;10047;42.490;26.012;2023-02-23T07:34:37;100280.22;;;9.12;100.00
19777;BME280;10047;42.490;26.012;2023-02-23T07:37:03;100229.97;;;8.87;100.00
19777;BME280;10047;42.490;26.012;2023-02-23T07:39:28;100233.81;;;9.94;100.00
19777;BME280;10047;42.490;26.012;2023-02-23T07:41:55;100226.66;;;8.83;100.00
19777;BME280;10047;42.490;26.012;2023-02-23T07:44:20;100222.06;;;9.05;100.00
19777;BME280;10047;42.490;26.012;2023-02-23T07:46:46;100260.22;;;9.43;100.00
19777;BME280;10047;42.490;26.012;2023-02-23T07:49:11;100253.25;;;9.95;100.00
19777;BME280;10047;42.490;26.012;2023-02-23T07:51:38;100175.94;;;9.29;100.00
19777;BME280;10047;42.490;26.012;2023-02-23T07:54:05;100260.78;;;9.11;100.00
19777;BME280;10047;42.490;26.012;2023-02-23T07:56:31;100242.38;;;9.47;100.00
19777;BME280;10047;42.490;26.012;2023-02-23T07:58:57;100201.28;;;10.08;100.00
19777;BME280;10047;42.490;26.012;2023-02-23T08:01:22;100205.09;;;9.91;100.00
19777;BME280;10047;42.490;26.012;2023-02-23T08:03:47;100267.13;;;9.35;100.00
19777;BME280;10047;42.490;26.012;2023-02-23T08:06:15;100263.44;;;9.07;100.00
19777;BME280;10047;42.490;26.012;2023-02-23T08:08:41;100226.66;;;8.83;100.00
19777;BME280;10047;42.490;26.012;2023-02-23T08:11:07;100238.78;;;9.57;100.00
19777;BME280;10047;42.490;26.012;2023-02-23T08:13:32;100249.47;;;9.30;100.00
19777;BME280;10047;42.490;26.012;2023-02-23T08:15:58;100199.63;;;8.82;100.00
19777;BME280;10047;42.490;26.012;2023-02-23T08:18:24;100234.25;;;9.30;100.00
19777;BME280;10047;42.490;26.012;2023-02-23T08:20:49;100225.28;;;9.13;100.00
19777;BME280;10047;42.490;26.012;2023-02-23T08:23:15;100233.53;;;9.24;100.00
19777;BME280;10047;42.490;26.012;2023-02-23T08:25:42;100168.91;;;8.99;100.00
19777;BME280;10047;42.490;26.012;2023-02-23T08:28:08;100179.41;;;9.25;100.00
19777;BME280;10047;42.490;26.012;2023-02-23T08:30:33;100225.50;;;9.45;100.00
19777;BME280;10047;42.490;26.012;2023-02-23T08:32:59;100242.97;;;9.60;100.00
19777;BME280;10047;42.490;26.012;2023-02-23T08:35:26;100179.69;;;9.10;100.00
19777;BME280;10047;42.490;26.012;2023-02-23T08:37:51;100147.59;;;9.07;100.00
19777;BME280;10047;42.490;26.012;2023-02-23T08:40:18;100180.44;;;9.56;100.00
19777;BME280;10047;42.490;26.012;2023-02-23T08:42:45;100166.38;;;9.41;100.00
19777;BME280;10047;42.490;26.012;2023-02-23T08:45:13;100258.66;;;9.79;100.00
19777;BME280;10047;42.490;26.012;2023-02-23T08:47:39;100209.78;;;9.28;100.00
19777;BME280;10047;42.490;26.012;2023-02-23T08:50:05;100198.69;;;9.32;100.00
19777;BME280;10047;42.490;26.012;2023-02-23T08:52:31;100261.75;;;9.94;100.00
19777;BME280;10047;42.490;26.012;2023-02-23T08:54:56;100229.59;;;9.52;100.00
19777;BME280;10047;42.490;26.012;2023-02-23T08:57:22;100226.91;;;9.59;100.00
19777;BME280;10047;42.490;26.012;2023-02-23T08:59:47;100259.06;;;9.59;100.00
19777;BME280;10047;42.490;26.012;2023-02-23T09:02:13;100262.84;;;9.81;100.00
19777;BME280;10047;42.490;26.012;2023-02-23T09:04:39;100266.13;;;9.86;100.00
19777;BME280;10047;42.490;26.012;2023-02-23T09:07:13;100256.16;;;10.18;100.00
19777;BME280;10047;42.490;26.012;2023-02-23T09:09:38;100269.38;;;9.94;100.00
19777;BME280;10047;42.490;26.012;2023-02-23T09:12:04;100257.38;;;9.99;100.00
19777;BME280;10047;42.490;26.012;2023-02-23T09:14:29;100264.59;;;10.19;100.00
19777;BME280;10047;42.490;26.012;2023-02-23T09:16:56;100230.75;;;9.77;100.00
19777;BME280;10047;42.490;26.012;2023-02-23T09:19:21;100277.72;;;9.99;100.00
19777;BME280;10047;42.490;26.012;2023-02-23T09:21:47;100278.91;;;9.82;100.00
19777;BME280;10047;42.490;26.012;2023-02-23T09:24:12;100235.00;;;9.78;100.00
19777;BME280;10047;42.490;26.012;2023-02-23T09:26:38;100278.03;;;10.25;100.00
19777;BME280;10047;42.490;26.012;2023-02-23T09:29:07;100287.13;;;10.35;100.00
19777;BME280;10047;42.490;26.012;2023-02-23T09:31:32;100241.03;;;10.14;100.00
19777;BME280;10047;42.490;26.012;2023-02-23T09:33:58;100246.91;;;10.53;100.00
19777;BME280;10047;42.490;26.012;2023-02-23T09:36:26;100293.75;;;10.41;100.00
19777;BME280;10047;42.490;26.012;2023-02-23T09:38:53;100247.84;;;10.10;100.00
19777;BME280;10047;42.490;26.012;2023-02-23T09:49:27;100291.00;;;10.87;100.00
19777;BME280;10047;42.490;26.012;2023-02-23T09:51:56;100251.25;;;10.48;100.00
19777;BME280;10047;42.490;26.012;2023-02-23T09:54:26;100253.69;;;10.15;100.00
19777;BME280;10047;42.490;26.012;2023-02-23T09:56:54;100303.84;;;10.45;100.00
19777;BME280;10047;42.490;26.012;2023-02-23T09:59:24;100281.44;;;10.61;100.00
19777;BME280;10047;42.490;26.012;2023-02-23T10:04:42;100283.19;;;10.59;100.00
19777;BME280;10047;42.490;26.012;2023-02-23T10:07:27;100240.81;;;10.23;100.00
19777;BME280;10047;42.490;26.012;2023-02-23T10:10:16;100281.97;;;11.07;100.00
19777;BME280;10047;42.490;26.012;2023-02-23T10:12:57;100242.34;;;10.30;100.00
19777;BME280;10047;42.490;26.012;2023-02-23T10:15:35;100280.97;;;10.81;100.00
19777;BME280;10047;42.490;26.012;2023-02-23T10:23:57;100278.38;;;11.16;100.00
19777;BME280;10047;42.490;26.012;2023-02-23T10:26:26;100275.75;;;10.87;100.00
19777;BME280;10047;42.490;26.012;2023-02-23T10:28:56;100244.53;;;10.80;100.00
19777;BME280;10047;42.490;26.012;2023-02-23T10:31:36;100282.34;;;10.59;100.00
19777;BME280;10047;42.490;26.012;2023-02-23T10:34:12;100264.91;;;10.43;100.00
19777;BME280;10047;42.490;26.012;2023-02-23T10:36:44;100250.56;;;10.76;100.00
19777;BME280;10047;42.490;26.012;2023-02-23T10:39:12;100256.63;;;10.71;100.00
19777;BME280;10047;42.490;26.012;2023-02-23T10:41:38;100244.31;;;11.52;100.00
19777;BME280;10047;42.490;26.012;2023-02-23T10:44:14;100204.31;;;10.94;100.00
19777;BME280;10047;42.490;26.012;2023-02-23T10:46:43;100218.38;;;11.07;100.00
19777;BME280;10047;42.490;26.012;2023-02-23T10:49:18;100273.53;;;11.71;100.00
19777;BME280;10047;42.490;26.012;2023-02-23T10:51:47;100263.31;;;11.08;100.00
19777;BME280;10047;42.490;26.012;2023-02-23T10:54:36;100276.03;;;11.41;100.00
19777;BME280;10047;42.490;26.012;2023-02-23T10:57:03;100262.53;;;11.37;100.00
19777;BME280;10047;42.490;26.012;2023-02-23T10:59:30;100288.28;;;11.59;100.00
19777;BME280;10047;42.490;26.012;2023-02-23T11:01:56;100281.44;;;11.91;100.00
19777;BME280;10047;42.490;26.012;2023-02-23T11:04:27;100235.03;;;11.82;100.00
19777;BME280;10047;42.490;26.012;2023-02-23T11:07:15;100271.41;;;12.42;100.00
19777;BME280;10047;42.490;26.012;2023-02-23T11:09:41;100292.13;;;11.73;100.00
19777;BME280;10047;42.490;26.012;2023-02-23T11:12:21;100298.22;;;11.35;100.00
19777;BME280;10047;42.490;26.012;2023-02-23T11:14:53;100286.25;;;11.39;100.00
19777;BME280;10047;42.490;26.012;2023-02-23T11:17:35;100284.72;;;11.64;100.00
19777;BME280;10047;42.490;26.012;2023-02-23T11:22:30;100244.56;;;11.43;100.00
19777;BME280;10047;42.490;26.012;2023-02-23T11:24:56;100273.88;;;11.25;100.00
19777;BME280;10047;42.490;26.012;2023-02-23T11:27:24;100284.44;;;11.75;100.00
19777;BME280;10047;42.490;26.012;2023-02-23T11:29:51;100245.41;;;12.31;100.00
19777;BME280;10047;42.490;26.012;2023-02-23T11:32:21;100298.25;;;12.26;100.00
19777;BME280;10047;42.490;26.012;2023-02-23T11:35:12;100303.31;;;12.28;100.00
19777;BME280;10047;42.490;26.012;2023-02-23T11:37:38;100254.09;;;11.96;100.00
19777;BME280;10047;42.490;26.012;2023-02-23T11:40:19;100301.88;;;12.47;100.00
19777;BME280;10047;42.490;26.012;2023-02-23T11:42:59;100305.44;;;12.13;100.00
19777;BME280;10047;42.490;26.012;2023-02-23T11:45:43;100301.47;;;12.03;100.00
19777;BME280;10047;42.490;26.012;2023-02-23T11:48:29;100290.16;;;11.52;100.00
19777;BME280;10047;42.490;26.012;2023-02-23T11:50:56;100267.47;;;11.75;100.00
19777;BME280;10047;42.490;26.012;2023-02-23T11:53:29;100319.47;;;12.54;100.00
19777;BME280;10047;42.490;26.012;2023-02-23T11:55:58;100335.06;;;12.17;100.00
19777;BME280;10047;42.490;26.012;2023-02-23T11:58:39;100322.06;;;12.25;100.00
19777;BME280;10047;42.490;26.012;2023-02-23T12:01:10;100279.91;;;12.43;100.00
19777;BME280;10047;42.490;26.012;2023-02-23T12:03:43;100276.75;;;12.35;100.00
19777;BME280;10047;42.490;26.012;2023-02-23T12:06:28;100325.69;;;12.18;100.00
19777;BME280;10047;42.490;26.012;2023-02-23T12:08:57;100309.72;;;12.41;100.00
19777;BME280;10047;42.490;26.012;2023-02-23T12:11:30;100261.47;;;11.78;100.00
19777;BME280;10047;42.490;26.012;2023-02-23T12:16:37;100308.94;;;12.09;100.00
19777;BME280;10047;42.490;26.012;2023-02-23T12:19:23;100302.53;;;12.26;100.00
19777;BME280;10047;42.490;26.012;2023-02-23T12:21:53;100317.38;;;11.82;100.00
19777;BME280;10047;42.490;26.012;2023-02-23T12:27:13;100307.19;;;11.82;100.00
19777;BME280;10047;42.490;26.012;2023-02-23T12:30:34;100300.41;;;12.40;100.00
19777;BME280;10047;42.490;26.012;2023-02-23T12:33:10;100305.84;;;12.00;100.00
19777;BME280;10047;42.490;26.012;2023-02-23T12:41:02;100280.81;;;11.53;100.00
19777;BME280;10047;42.490;26.012;2023-02-23T12:43:45;100316.25;;;11.60;100.00
19777;BME280;10047;42.490;26.012;2023-02-23T12:46:27;100305.16;;;11.93;100.00
19777;BME280;10047;42.490;26.012;2023-02-23T12:49:02;100314.84;;;12.11;100.00
19777;BME280;10047;42.490;26.012;2023-02-23T12:53:59;100308.94;;;12.09;100.00
19777;BME280;10047;42.490;26.012;2023-02-23T12:56:32;100320.94;;;11.43;100.00
19777;BME280;10047;42.490;26.012;2023-02-23T13:02:16;100313.44;;;11.71;100.00
19777;BME280;10047;42.490;26.012;2023-02-23T13:18:25;100261.94;;;11.90;100.00
19777;BME280;10047;42.490;26.012;2023-02-23T13:21:25;100316.69;;;11.76;100.00
19777;BME280;10047;42.490;26.012;2023-02-23T13:24:05;100323.69;;;11.98;100.00
19777;BME280;10047;42.490;26.012;2023-02-23T13:31:56;100316.81;;;12.02;100.00
19777;BME280;10047;42.490;26.012;2023-02-23T13:34:29;100266.78;;;11.70;100.00
19777;BME280;10047;42.490;26.012;2023-02-23T13:36:57;100263.75;;;12.16;100.00
19777;BME280;10047;42.490;26.012;2023-02-23T13:45:27;100334.06;;;11.92;100.00
19777;BME280;10047;42.490;26.012;2023-02-23T13:48:29;100218.03;;;10.89;100.00
19777;BME280;10047;42.490;26.012;2023-02-23T13:53:44;100281.03;;;11.11;100.00
19777;BME280;10047;42.490;26.012;2023-02-23T13:56:17;100329.41;;;11.44;100.00
19777;BME280;10047;42.490;26.012;2023-02-23T13:59:02;100272.16;;;10.94;100.00
19777;BME280;10047;42.490;26.012;2023-02-23T14:01:31;100342.53;;;11.28;100.00
19777;BME280;10047;42.490;26.012;2023-02-23T14:03:59;100312.84;;;11.27;100.00
19777;BME280;10047;42.490;26.012;2023-02-23T14:06:29;100276.47;;;11.24;100.00
19777;BME280;10047;42.490;26.012;2023-02-23T14:09:11;100325.22;;;11.41;100.00
19777;BME280;10047;42.490;26.012;2023-02-23T14:11:44;100332.63;;;11.18;100.00
19777;BME280;10047;42.490;26.012;2023-02-23T14:20:12;100329.81;;;11.28;100.00
19777;BME280;10047;42.490;26.012;2023-02-23T14:28:35;100285.47;;;10.70;100.00
19777;BME280;10047;42.490;26.012;2023-02-23T14:31:19;100300.56;;;10.76;100.00
19777;BME280;10047;42.490;26.012;2023-02-23T14:43:58;100338.22;;;10.97;100.00
19777;BME280;10047;42.490;26.012;2023-02-23T14:46:25;100337.81;;;10.78;100.00
19777;BME280;10047;42.490;26.012;2023-02-23T14:49:18;100339.91;;;10.61;100.00
19777;BME280;10047;42.490;26.012;2023-02-23T14:51:46;100339.88;;;10.63;100.00
19777;BME280;10047;42.490;26.012;2023-02-23T14:54:29;100289.75;;;10.31;100.00
19777;BME280;10047;42.490;26.012;2023-02-23T14:56:57;100262.19;;;10.13;100.00
19777;BME280;10047;42.490;26.012;2023-02-23T14:59:26;100252.59;;;9.86;100.00